Time,TemperatureF,DewpointF,PressureIn,WindDirection,WindDirectionDegrees,WindSpeedMPH,WindSpeedGustMPH,Humidity,HourlyPrecipIn,Conditions,Clouds,dailyrainin,SolarRadiationWatts/m^2,SoftwareType,DateUTC
2013-01-12 03:46:00,-7.6,-17.0,29.80,NW,321,1.0,5.0,64,0.00,,,0.00,0,weatherlink.com 1.10,2013-01-12 10:46:00,
2013-01-12 04:01:00,-8.4,-17.0,29.79,NW,318,0.0,2.0,66,0.00,,,0.00,0,weatherlink.com 1.10,2013-01-12 11:01:00,
2013-01-12 04:16:00,-9.1,-17.0,29.80,NW,317,0.0,1.0,68,0.00,,,0.00,0,weatherlink.com 1.10,2013-01-12 11:16:00,
2013-01-12 04:31:00,-8.7,-16.0,29.80,NW,317,0.0,1.0,69,0.00,,,0.00,0,weatherlink.com 1.10,2013-01-12 11:31:00,
2013-01-12 04:46:00,-8.5,-16.0,29.81,WSW,246,0.0,2.0,68,0.00,,,0.00,0,weatherlink.com 1.10,2013-01-12 11:46:00,
2013-01-12 05:01:00,-8.3,-17.0,29.82,WSW,253,0.0,1.0,66,0.00,,,0.00,0,weatherlink.com 1.10,2013-01-12 12:01:00,
2013-01-12 05:16:00,-8.5,-17.0,29.84,WSW,253,0.0,1.0,66,0.00,,,0.00,0,weatherlink.com 1.10,2013-01-12 12:16:00,
2013-01-12 05:31:00,-8.6,-17.0,29.86,WSW,253,0.0,0.0,65,0.00,,,0.00,0,weatherlink.com 1.10,2013-01-12 12:31:00,
2013-01-12 05:47:00,-10.3,-19.0,29.88,WSW,237,0.0,1.0,65,0.00,,,0.00,0,weatherlink.com 1.10,2013-01-12 12:47:00,
2013-01-12 06:02:00,-10.6,-18.0,29.89,SE,138,0.0,2.0,69,0.00,,,0.00,0,weatherlink.com 1.10,2013-01-12 13:02:00,
2013-01-12 06:17:00,-10.3,-18.0,29.91,SE,138,0.0,0.0,67,0.00,,,0.00,0,weatherlink.com 1.10,2013-01-12 13:17:00,
2013-01-12 06:32:00,-9.8,-18.0,29.93,SE,138,0.0,1.0,68,0.00,,,0.00,0,weatherlink.com 1.10,2013-01-12 13:32:00,
2013-01-12 06:47:00,-8.5,-17.0,29.95,SE,138,0.0,0.0,67,0.00,,,0.00,0,weatherlink.com 1.10,2013-01-12 13:47:00,
2013-01-12 07:02:00,-7.4,-16.0,29.96,SE,138,0.0,0.0,65,0.00,,,0.00,0,weatherlink.com 1.10,2013-01-12 14:02:00,
2013-01-12 07:17:00,-6.9,-16.0,29.97,SE,138,0.0,0.0,64,0.00,,,0.00,0,weatherlink.com 1.10,2013-01-12 14:17:00,
2013-01-12 07:32:00,-6.6,-16.0,29.98,SSE,153,0.0,1.0,63,0.00,,,0.00,7,weatherlink.com 1.10,2013-01-12 14:32:00,
2013-01-12 07:47:00,-5.7,-16.0,29.99,SW,224,0.0,1.0,62,0.00,,,0.00,44,weatherlink.com 1.10,2013-01-12 14:47:00,
2013-01-12 08:02:00,-4.1,-15.0,30.00,WSW,254,3.0,4.0,60,0.00,,,0.00,90,weatherlink.com 1.10,2013-01-12 15:02:00,
2013-01-12 08:17:00,-3.0,-15.0,30.01,West,268,0.0,3.0,57,0.00,,,0.00,139,weatherlink.com 1.10,2013-01-12 15:17:00,
2013-01-12 08:32:00,-2.1,-14.0,30.02,West,269,0.0,3.0,56,0.00,,,0.00,179,weatherlink.com 1.10,2013-01-12 15:32:00,
2013-01-12 08:47:00,-1.7,-14.0,30.03,West,279,3.0,3.0,55,0.00,,,0.00,216,weatherlink.com 1.10,2013-01-12 15:47:00,
2013-01-12 09:02:00,-1.1,-15.0,30.03,WNW,287,1.0,4.0,53,0.00,,,0.00,258,weatherlink.com 1.10,2013-01-12 16:02:00,
2013-01-12 09:18:00,-0.1,-14.0,30.04,West,277,1.0,4.0,53,0.00,,,0.00,295,weatherlink.com 1.10,2013-01-12 16:18:00,
2013-01-12 09:33:00,0.4,-14.0,30.05,West,273,2.0,5.0,51,0.00,,,0.00,338,weatherlink.com 1.10,2013-01-12 16:33:00,
2013-01-12 09:48:00,1.5,-13.0,30.06,WNW,293,1.0,4.0,50,0.00,,,0.00,378,weatherlink.com 1.10,2013-01-12 16:48:00,
2013-01-12 10:03:00,2.7,-13.0,30.06,WNW,291,1.0,3.0,47,0.00,,,0.00,413,weatherlink.com 1.10,2013-01-12 17:03:00,
2013-01-12 10:18:00,3.4,-14.0,30.06,WNW,290,0.0,3.0,45,0.00,,,0.00,448,weatherlink.com 1.10,2013-01-12 17:18:00,
2013-01-12 10:33:00,4.2,-13.0,30.06,WNW,287,1.0,3.0,44,0.00,,,0.00,480,weatherlink.com 1.10,2013-01-12 17:33:00,
2013-01-12 10:48:00,5.0,-13.0,30.06,NW,325,1.0,4.0,43,0.00,,,0.00,504,weatherlink.com 1.10,2013-01-12 17:48:00,
2013-01-12 11:03:00,5.9,-13.0,30.05,West,263,0.0,3.0,41,0.00,,,0.00,531,weatherlink.com 1.10,2013-01-12 18:03:00,
2013-01-12 11:18:00,5.9,-14.0,30.05,WSW,255,4.0,5.0,39,0.00,,,0.00,548,weatherlink.com 1.10,2013-01-12 18:18:00,
2013-01-12 11:33:00,6.2,-13.0,30.04,West,268,3.0,5.0,40,0.00,,,0.00,564,weatherlink.com 1.10,2013-01-12 18:33:00,
2013-01-12 11:48:00,7.0,-14.0,30.03,WNW,300,1.0,6.0,38,0.00,,,0.00,577,weatherlink.com 1.10,2013-01-12 18:48:00,
2013-01-12 12:03:00,8.0,-13.0,30.02,SW,226,1.0,6.0,38,0.00,,,0.00,584,weatherlink.com 1.10,2013-01-12 19:03:00,
2013-01-12 12:18:00,9.2,-13.0,30.01,WNW,289,0.0,5.0,35,0.00,,,0.00,592,weatherlink.com 1.10,2013-01-12 19:18:00,
2013-01-12 12:34:00,9.4,-14.0,30.01,WNW,284,2.0,5.0,34,0.00,,,0.00,591,weatherlink.com 1.10,2013-01-12 19:34:00,
2013-01-12 12:49:00,9.1,-15.0,30.00,WNW,286,2.0,8.0,33,0.00,,,0.00,584,weatherlink.com 1.10,2013-01-12 19:49:00,
2013-01-12 13:04:00,9.7,-15.0,29.99,West,268,2.0,8.0,32,0.00,,,0.00,580,weatherlink.com 1.10,2013-01-12 20:04:00,
2013-01-12 13:19:00,11.2,-13.0,29.99,West,268,1.0,5.0,33,0.00,,,0.00,568,weatherlink.com 1.10,2013-01-12 20:19:00,
2013-01-12 13:34:00,10.8,-13.0,29.99,WSW,248,0.0,6.0,33,0.00,,,0.00,552,weatherlink.com 1.10,2013-01-12 20:34:00,
2013-01-12 13:49:00,10.1,-14.0,29.99,NW,310,4.0,4.0,33,0.00,,,0.00,531,weatherlink.com 1.10,2013-01-12 20:49:00,
2013-01-12 14:04:00,9.2,-15.0,29.99,West,261,0.0,5.0,33,0.00,,,0.00,506,weatherlink.com 1.10,2013-01-12 21:04:00,
2013-01-12 14:19:00,9.7,-14.0,30.00,WNW,292,2.0,4.0,33,0.00,,,0.00,457,weatherlink.com 1.10,2013-01-12 21:19:00,
2013-01-12 14:34:00,8.6,-16.0,30.00,WSW,248,4.0,6.0,32,0.00,,,0.00,62,weatherlink.com 1.10,2013-01-12 21:34:00,
2013-01-12 14:49:00,6.2,-16.0,30.00,WSW,258,0.0,4.0,35,0.00,,,0.00,114,weatherlink.com 1.10,2013-01-12 21:49:00,
2013-01-12 15:04:00,6.3,-15.0,30.00,WNW,299,0.0,2.0,36,0.00,,,0.00,121,weatherlink.com 1.10,2013-01-12 22:04:00,
2013-01-12 15:19:00,6.2,-16.0,30.00,WSW,257,1.0,4.0,36,0.00,,,0.00,70,weatherlink.com 1.10,2013-01-12 22:19:00,
2013-01-12 15:34:00,5.0,-12.0,30.01,NNW,342,1.0,3.0,45,0.00,,,0.00,105,weatherlink.com 1.10,2013-01-12 22:34:00,
2013-01-12 15:49:00,4.5,-9.0,30.01,WNW,298,0.0,4.0,54,0.00,,,0.00,107,weatherlink.com 1.10,2013-01-12 22:49:00,
2013-01-12 16:05:00,4.3,-9.0,30.01,West,267,3.0,6.0,54,0.00,,,0.00,84,weatherlink.com 1.10,2013-01-12 23:05:00,
2013-01-12 16:20:00,4.3,-11.0,30.01,WSW,242,0.0,8.0,50,0.00,,,0.00,44,weatherlink.com 1.10,2013-01-12 23:20:00,
2013-01-12 16:35:00,2.7,-13.0,30.01,SSW,201,1.0,3.0,48,0.00,,,0.00,12,weatherlink.com 1.10,2013-01-12 23:35:00,
2013-01-12 16:50:00,0.9,-13.0,30.02,North,360,1.0,3.0,52,0.00,,,0.00,7,weatherlink.com 1.10,2013-01-12 23:50:00,
2013-01-12 17:05:00,-0.7,-14.0,30.01,SSE,148,2.0,5.0,53,0.00,,,0.00,0,weatherlink.com 1.10,2013-01-13 00:05:00,
2013-01-12 17:20:00,-1.6,-14.0,30.01,SSW,209,0.0,5.0,55,0.00,,,0.00,0,weatherlink.com 1.10,2013-01-13 00:20:00,
2013-01-12 17:35:00,-2.2,-14.0,30.02,South,173,0.0,4.0,56,0.00,,,0.00,0,weatherlink.com 1.10,2013-01-13 00:35:00,
2013-01-12 17:50:00,-2.5,-14.0,30.02,South,181,1.0,4.0,58,0.00,,,0.00,0,weatherlink.com 1.10,2013-01-13 00:50:00,
2013-01-12 18:05:00,-2.6,-11.0,30.03,West,273,1.0,5.0,66,0.00,,,0.00,0,weatherlink.com 1.10,2013-01-13 01:05:00,
2013-01-12 18:20:00,-2.3,-10.0,30.03,WSW,250,0.0,2.0,69,0.00,,,0.00,0,weatherlink.com 1.10,2013-01-13 01:20:00,
2013-01-12 18:35:00,-2.7,-11.0,30.03,WSW,249,0.0,1.0,68,0.00,,,0.00,0,weatherlink.com 1.10,2013-01-13 01:35:00,
2013-01-12 18:50:00,-3.0,-13.0,30.03,South,189,1.0,3.0,61,0.00,,,0.00,0,weatherlink.com 1.10,2013-01-13 01:50:00,
2013-01-12 19:05:00,-3.6,-15.0,30.04,SSW,205,0.0,3.0,57,0.00,,,0.00,0,weatherlink.com 1.10,2013-01-13 02:05:00,
2013-01-12 19:20:00,-4.0,-16.0,30.04,SSW,203,0.0,2.0,57,0.00,,,0.00,0,weatherlink.com 1.10,2013-01-13 02:20:00,
2013-01-12 19:36:00,-4.3,-16.0,30.04,South,172,0.0,3.0,56,0.00,,,0.00,0,weatherlink.com 1.10,2013-01-13 02:36:00,
2013-01-12 19:51:00,-5.3,-17.0,30.04,South,180,1.0,2.0,56,0.00,,,0.00,0,weatherlink.com 1.10,2013-01-13 02:51:00,
2013-01-12 20:06:00,-5.7,-17.0,30.05,South,176,0.0,3.0,58,0.00,,,0.00,0,weatherlink.com 1.10,2013-01-13 03:06:00,
2013-01-12 20:21:00,-5.8,-17.0,30.05,South,184,1.0,2.0,58,0.00,,,0.00,0,weatherlink.com 1.10,2013-01-13 03:21:00,
2013-01-12 20:36:00,-5.9,-17.0,30.05,South,184,1.0,2.0,58,0.00,,,0.00,0,weatherlink.com 1.10,2013-01-13 03:36:00,
2013-01-12 20:51:00,-6.1,-17.0,30.06,South,170,1.0,2.0,58,0.00,,,0.00,0,weatherlink.com 1.10,2013-01-13 03:51:00,
2013-01-12 21:06:00,-5.9,-17.0,30.06,SSE,158,0.0,3.0,58,0.00,,,0.00,0,weatherlink.com 1.10,2013-01-13 04:06:00,
2013-01-12 21:21:00,-6.8,-18.0,30.06,South,178,1.0,4.0,57,0.00,,,0.00,0,weatherlink.com 1.10,2013-01-13 04:21:00,
2013-01-12 21:36:00,-7.8,-19.0,30.06,SSE,161,2.0,3.0,59,0.00,,,0.00,0,weatherlink.com 1.10,2013-01-13 04:36:00,
2013-01-12 21:51:00,-7.9,-18.0,30.06,SSE,156,1.0,3.0,60,0.00,,,0.00,0,weatherlink.com 1.10,2013-01-13 04:51:00,
2013-01-12 22:06:00,-7.7,-18.0,30.06,SSE,161,0.0,2.0,61,0.00,,,0.00,0,weatherlink.com 1.10,2013-01-13 05:06:00,
2013-01-12 22:21:00,-8.3,-19.0,30.06,SSE,157,1.0,3.0,60,0.00,,,0.00,0,weatherlink.com 1.10,2013-01-13 05:21:00,
2013-01-12 22:36:00,-8.7,-19.0,30.06,SE,143,3.0,4.0,62,0.00,,,0.00,0,weatherlink.com 1.10,2013-01-13 05:36:00,
2013-01-12 22:52:00,-8.4,-18.0,30.06,SSE,151,1.0,4.0,63,0.00,,,0.00,0,weatherlink.com 1.10,2013-01-13 05:52:00,
2013-01-12 23:07:00,-8.5,-18.0,30.06,SSE,151,3.0,4.0,63,0.00,,,0.00,0,weatherlink.com 1.10,2013-01-13 06:07:00,
2013-01-12 23:22:00,-8.7,-18.0,30.07,SSE,151,3.0,3.0,65,0.00,,,0.00,0,weatherlink.com 1.10,2013-01-13 06:22:00,
2013-01-12 23:37:00,-9.0,-17.0,30.07,South,175,3.0,4.0,69,0.00,,,0.00,0,weatherlink.com 1.10,2013-01-13 06:37:00,
2013-01-12 23:52:00,-9.2,-17.0,30.07,SSE,156,2.0,3.0,70,0.00,,,0.00,0,weatherlink.com 1.10,2013-01-13 06:52:00,